Time;durP1;ratioP1;P1;durP2;ratioP2;P2;SDS_P1;SDS_P2;PMS_P1;PMS_P2;Temp;Humidity;BMP_temperature;BMP_pressure;BME280_temperature;BME280_humidity;BME280_pressure;Samples;Min_cycle;Max_cycle;Signal;HPM_P1;HPM_P2
2021/05/30 00:00:18;;;;;;;6.50;4.28;;;;;;;;;;5015075;28;20049;-59
2021/05/30 00:03:04;;;;;;;10.43;4.93;;;;;;;;;;5014864;28;20061;-59
2021/05/30 00:05:31;;;;;;;8.60;4.40;;;;;;;;;;5015016;28;20076;-59
2021/05/30 00:07:57;;;;;;;7.88;4.32;;;;;;;;;;5014979;28;20184;-59
2021/05/30 00:10:25;;;;;;;6.78;4.10;;;;;;;;;;5015572;28;20072;-59
2021/05/30 00:12:52;;;;;;;9.10;4.55;;;;;;;;;;5014959;28;20053;-58
2021/05/30 00:15:18;;;;;;;11.43;4.53;;;;;;;;;;5014889;28;20049;-59
2021/05/30 00:17:45;;;;;;;7.55;4.43;;;;;;;;;;5013654;28;20392;-59
2021/05/30 00:20:11;;;;;;;9.35;4.78;;;;;;;;;;5014878;28;20077;-59
2021/05/30 00:22:38;;;;;;;7.68;4.63;;;;;;;;;;5015349;28;20060;-59
2021/05/30 00:25:06;;;;;;;6.97;3.92;;;;;;;;;;5014679;28;20053;-59
2021/05/30 00:27:32;;;;;;;5.57;3.58;;;;;;;;;;5014633;28;20037;-59
2021/05/30 00:29:59;;;;;;;5.07;3.80;;;;;;;;;;5013529;28;20044;-59
2021/05/30 00:32:25;;;;;;;8.10;3.90;;;;;;;;;;5014352;28;20042;-59
2021/05/30 00:34:53;;;;;;;7.80;4.05;;;;;;;;;;5014650;28;20054;-59
2021/05/30 00:37:19;;;;;;;10.20;5.18;;;;;;;;;;5014758;28;20053;-59
2021/05/30 00:39:45;;;;;;;12.55;4.88;;;;;;;;;;5014193;28;20487;-59
2021/05/30 00:42:12;;;;;;;10.55;3.97;;;;;;;;;;5014310;28;20065;-59
2021/05/30 00:44:38;;;;;;;7.70;4.18;;;;;;;;;;5014382;28;20038;-59
2021/05/30 00:47:05;;;;;;;7.53;3.83;;;;;;;;;;5013908;28;20052;-59
2021/05/30 00:49:31;;;;;;;6.97;4.13;;;;;;;;;;5014894;28;20519;-59
2021/05/30 00:51:57;;;;;;;5.88;3.35;;;;;;;;;;5014084;28;20049;-59
2021/05/30 00:54:24;;;;;;;7.68;4.28;;;;;;;;;;5013004;28;20066;-59
2021/05/30 00:56:50;;;;;;;6.43;4.10;;;;;;;;;;5013767;28;20389;-59
2021/05/30 00:59:17;;;;;;;6.88;3.97;;;;;;;;;;5012795;28;20053;-59
2021/05/30 01:01:43;;;;;;;7.07;4.03;;;;;;;;;;5014142;28;20097;-59
2021/05/30 01:04:10;;;;;;;7.32;3.80;;;;;;;;;;4999118;28;20491;-59
2021/05/30 01:06:38;;;;;;;7.35;3.55;;;;;;;;;;5009871;28;20131;-59
2021/05/30 01:09:05;;;;;;;6.70;3.33;;;;;;;;;;5013900;28;20058;-59
2021/05/30 01:11:32;;;;;;;7.78;4.15;;;;;;;;;;5013926;28;20058;-59
2021/05/30 01:13:59;;;;;;;5.18;3.38;;;;;;;;;;5012544;28;20050;-59
2021/05/30 01:16:26;;;;;;;9.48;3.60;;;;;;;;;;5014165;28;20050;-59
2021/05/30 01:18:55;;;;;;;7.72;3.70;;;;;;;;;;5013587;28;20088;-59
2021/05/30 01:21:21;;;;;;;4.53;2.70;;;;;;;;;;5013483;28;20052;-59
2021/05/30 01:23:51;;;;;;;4.68;3.03;;;;;;;;;;5013561;28;20042;-59
2021/05/30 01:26:18;;;;;;;6.25;3.50;;;;;;;;;;5013541;28;20408;-59
2021/05/30 01:28:44;;;;;;;6.28;3.70;;;;;;;;;;5012353;28;20091;-59
2021/05/30 01:31:10;;;;;;;4.40;2.67;;;;;;;;;;5013565;28;20050;-59
2021/05/30 01:33:37;;;;;;;4.75;2.80;;;;;;;;;;5013376;28;20050;-59
2021/05/30 01:36:03;;;;;;;4.53;3.00;;;;;;;;;;5013332;28;20052;-59
2021/05/30 01:38:30;;;;;;;8.32;3.50;;;;;;;;;;5013219;28;20034;-59
2021/05/30 01:40:56;;;;;;;5.63;2.75;;;;;;;;;;5010940;28;20058;-59
2021/05/30 01:43:22;;;;;;;3.58;2.92;;;;;;;;;;5013902;28;20042;-59
2021/05/30 01:45:49;;;;;;;5.18;2.97;;;;;;;;;;5012785;28;20412;-59
2021/05/30 01:48:15;;;;;;;3.95;2.40;;;;;;;;;;5013163;28;20058;-59
2021/05/30 01:50:47;;;;;;;5.07;2.95;;;;;;;;;;5011930;28;20042;-59
2021/05/30 01:53:17;;;;;;;4.93;3.05;;;;;;;;;;4997814;28;20053;-59
2021/05/30 01:58:11;;;;;;;5.90;3.30;;;;;;;;;;5013748;28;20487;-59
2021/05/30 02:00:37;;;;;;;4.35;3.08;;;;;;;;;;5012546;28;20488;-59
2021/05/30 02:03:04;;;;;;;4.85;2.55;;;;;;;;;;5012885;28;20088;-59
2021/05/30 02:05:31;;;;;;;7.10;3.05;;;;;;;;;;5011670;28;20096;-59
2021/05/30 02:07:59;;;;;;;4.35;2.33;;;;;;;;;;5012863;28;20052;-59
2021/05/30 02:10:26;;;;;;;3.90;2.15;;;;;;;;;;5013392;28;20084;-59
2021/05/30 02:12:54;;;;;;;4.45;2.60;;;;;;;;;;5012858;28;20045;-59
2021/05/30 02:15:20;;;;;;;3.35;2.05;;;;;;;;;;5012469;28;20053;-59
2021/05/30 02:17:47;;;;;;;4.88;2.60;;;;;;;;;;5012554;28;20061;-58
2021/05/30 02:20:14;;;;;;;4.00;2.22;;;;;;;;;;5012852;28;20403;-59
2021/05/30 02:22:40;;;;;;;5.13;2.55;;;;;;;;;;5013355;28;20054;-59
2021/05/30 02:25:09;;;;;;;4.07;2.50;;;;;;;;;;5012782;28;20045;-59
2021/05/30 02:27:35;;;;;;;3.85;2.38;;;;;;;;;;5012510;28;20046;-59
2021/05/30 02:30:01;;;;;;;3.75;1.98;;;;;;;;;;5012161;28;20042;-59
2021/05/30 02:32:28;;;;;;;5.78;2.30;;;;;;;;;;5012573;28;20431;-59
2021/05/30 02:34:54;;;;;;;3.63;2.10;;;;;;;;;;5011451;28;20404;-59
2021/05/30 02:37:21;;;;;;;4.05;2.40;;;;;;;;;;5013041;28;20046;-59
2021/05/30 02:39:47;;;;;;;5.88;2.33;;;;;;;;;;5010639;28;20046;-59
2021/05/30 02:42:14;;;;;;;4.13;2.20;;;;;;;;;;5012070;28;20380;-59
2021/05/30 02:44:40;;;;;;;3.80;2.10;;;;;;;;;;5012483;28;20149;-59
2021/05/30 02:47:06;;;;;;;5.95;2.33;;;;;;;;;;5011248;28;20088;-59
2021/05/30 02:49:33;;;;;;;3.65;2.33;;;;;;;;;;5012981;28;20053;-59
2021/05/30 02:52:00;;;;;;;3.20;1.83;;;;;;;;;;5012316;28;20046;-59
2021/05/30 02:54:26;;;;;;;3.05;1.80;;;;;;;;;;5012343;28;20058;-59
2021/05/30 02:56:53;;;;;;;5.35;2.33;;;;;;;;;;5012037;28;20496;-59
2021/05/30 02:59:19;;;;;;;4.55;2.50;;;;;;;;;;5012304;28;20053;-59
2021/05/30 03:01:45;;;;;;;6.03;2.58;;;;;;;;;;5012519;28;20081;-59
2021/05/30 03:04:12;;;;;;;3.78;2.13;;;;;;;;;;5012788;28;20057;-59
2021/05/30 03:06:38;;;;;;;3.83;2.45;;;;;;;;;;5012219;28;20050;-59
2021/05/30 03:09:05;;;;;;;3.97;2.33;;;;;;;;;;5010769;28;20081;-59
2021/05/30 03:11:31;;;;;;;4.15;2.10;;;;;;;;;;5011828;28;20050;-59
2021/05/30 03:13:57;;;;;;;4.32;2.17;;;;;;;;;;5012209;28;20124;-59
2021/05/30 03:16:24;;;;;;;3.17;1.90;;;;;;;;;;5012080;28;20049;-59
2021/05/30 03:18:50;;;;;;;4.40;2.35;;;;;;;;;;5011414;28;20050;-59
2021/05/30 03:21:17;;;;;;;4.00;2.45;;;;;;;;;;5011771;28;20137;-59
2021/05/30 03:23:44;;;;;;;6.88;2.40;;;;;;;;;;5011304;28;20062;-59
2021/05/30 03:26:10;;;;;;;4.63;2.42;;;;;;;;;;5010161;28;20121;-59
2021/05/30 03:28:37;;;;;;;3.60;2.40;;;;;;;;;;5007901;28;20092;-59
2021/05/30 03:31:04;;;;;;;3.47;2.25;;;;;;;;;;5011341;28;20442;-59
2021/05/30 03:33:30;;;;;;;3.30;2.22;;;;;;;;;;5011766;28;20057;-59
2021/05/30 03:36:00;;;;;;;3.90;2.40;;;;;;;;;;5011198;28;20129;-59
2021/05/30 03:38:29;;;;;;;5.35;2.38;;;;;;;;;;5011881;28;20065;-59
2021/05/30 03:41:06;;;;;;;4.38;2.60;;;;;;;;;;5011796;28;20056;-59
2021/05/30 03:43:33;;;;;;;4.32;2.60;;;;;;;;;;5012616;28;20050;-59
2021/05/30 03:46:00;;;;;;;4.05;2.40;;;;;;;;;;5011978;28;20050;-59
2021/05/30 03:48:26;;;;;;;4.35;2.70;;;;;;;;;;5011560;28;20512;-59
2021/05/30 03:50:53;;;;;;;3.30;2.40;;;;;;;;;;5011962;28;20049;-59
2021/05/30 03:53:20;;;;;;;4.32;2.60;;;;;;;;;;5013858;28;20511;-59
2021/05/30 03:55:47;;;;;;;5.55;2.92;;;;;;;;;;5015198;28;20077;-59
2021/05/30 03:58:13;;;;;;;4.55;2.88;;;;;;;;;;5014882;28;20077;-59
2021/05/30 04:00:40;;;;;;;4.00;2.75;;;;;;;;;;5015264;28;20045;-59
2021/05/30 04:03:07;;;;;;;4.18;2.38;;;;;;;;;;5014990;28;20045;-59
2021/05/30 04:05:33;;;;;;;4.65;2.47;;;;;;;;;;5015142;28;20164;-59
2021/05/30 04:08:00;;;;;;;4.65;2.58;;;;;;;;;;5014878;28;20054;-59
2021/05/30 04:10:26;;;;;;;6.47;2.75;;;;;;;;;;5015459;28;20121;-59
2021/05/30 04:12:52;;;;;;;5.05;2.60;;;;;;;;;;5014986;28;20077;-59
2021/05/30 04:15:19;;;;;;;4.28;2.90;;;;;;;;;;5014913;28;20057;-59
2021/05/30 04:17:46;;;;;;;5.00;3.00;;;;;;;;;;5013621;28;20045;-59
2021/05/30 04:20:15;;;;;;;5.75;2.75;;;;;;;;;;5014781;28;20042;-59
2021/05/30 04:22:41;;;;;;;4.30;2.65;;;;;;;;;;5015298;28;20045;-59
2021/05/30 04:25:09;;;;;;;4.03;2.83;;;;;;;;;;5014388;28;20048;-59
2021/05/30 04:27:36;;;;;;;4.50;2.55;;;;;;;;;;5014563;28;20132;-59
2021/05/30 04:30:07;;;;;;;4.75;2.92;;;;;;;;;;5014580;28;20069;-59
2021/05/30 04:32:33;;;;;;;5.28;2.72;;;;;;;;;;5014568;28;20042;-59
2021/05/30 04:34:59;;;;;;;4.38;2.67;;;;;;;;;;5014515;28;20148;-59
2021/05/30 04:37:25;;;;;;;4.57;2.67;;;;;;;;;;5015132;28;20053;-59
2021/05/30 04:39:52;;;;;;;4.75;2.67;;;;;;;;;;5014078;28;20050;-59
2021/05/30 04:42:18;;;;;;;5.75;2.75;;;;;;;;;;5014372;28;20085;-59
2021/05/30 04:44:45;;;;;;;4.53;2.95;;;;;;;;;;5014444;28;20041;-59
2021/05/30 04:47:12;;;;;;;4.35;2.63;;;;;;;;;;5013082;28;20120;-59
2021/05/30 04:49:39;;;;;;;6.45;2.65;;;;;;;;;;5014973;28;20058;-59
2021/05/30 04:52:06;;;;;;;4.97;2.95;;;;;;;;;;5014405;28;20045;-59
2021/05/30 04:54:33;;;;;;;3.80;2.45;;;;;;;;;;5013872;28;20111;-59
2021/05/30 04:56:59;;;;;;;5.05;2.50;;;;;;;;;;5013992;28;20065;-59
2021/05/30 04:59:25;;;;;;;3.33;2.17;;;;;;;;;;5013916;28;20072;-59
2021/05/30 05:01:52;;;;;;;3.55;2.83;;;;;;;;;;5014333;28;20463;-59
2021/05/30 05:04:19;;;;;;;6.40;2.92;;;;;;;;;;5012791;28;20057;-59
2021/05/30 05:06:45;;;;;;;4.47;2.80;;;;;;;;;;5012449;28;20062;-59
2021/05/30 05:09:11;;;;;;;5.65;2.92;;;;;;;;;;5012218;28;20080;-59
2021/05/30 05:11:38;;;;;;;5.03;2.95;;;;;;;;;;5013858;28;20077;-59
2021/05/30 05:14:04;;;;;;;2.92;2.03;;;;;;;;;;5013861;28;20064;-59
2021/05/30 05:16:30;;;;;;;4.68;2.33;;;;;;;;;;5014424;28;20046;-59
2021/05/30 05:18:57;;;;;;;3.10;2.50;;;;;;;;;;5013635;28;20046;-59
2021/05/30 05:21:23;;;;;;;4.03;2.50;;;;;;;;;;5013680;28;20088;-59
2021/05/30 05:23:49;;;;;;;4.03;2.50;;;;;;;;;;5012971;28;20061;-59
2021/05/30 05:26:16;;;;;;;4.22;2.30;;;;;;;;;;5013513;28;20061;-58
2021/05/30 05:28:42;;;;;;;4.65;2.72;;;;;;;;;;5013863;28;20045;-58
2021/05/30 05:31:08;;;;;;;5.00;2.92;;;;;;;;;;5013354;28;20045;-59
2021/05/30 05:33:35;;;;;;;4.60;2.70;;;;;;;;;;5012376;28;20054;-59
2021/05/30 05:36:01;;;;;;;3.67;2.33;;;;;;;;;;5012349;28;20503;-59
2021/05/30 05:38:27;;;;;;;3.40;2.45;;;;;;;;;;5013050;28;20042;-58
2021/05/30 05:40:54;;;;;;;5.60;2.85;;;;;;;;;;5012577;28;20045;-59
2021/05/30 05:43:20;;;;;;;4.45;2.60;;;;;;;;;;5012914;28;20045;-59
2021/05/30 05:45:47;;;;;;;4.65;2.60;;;;;;;;;;5011070;28;20056;-59
2021/05/30 05:48:17;;;;;;;5.70;3.03;;;;;;;;;;5010526;28;20073;-59
2021/05/30 05:50:47;;;;;;;3.30;2.30;;;;;;;;;;5010508;28;20065;-59
2021/05/30 05:53:14;;;;;;;3.75;2.25;;;;;;;;;;5009405;28;20046;-59
2021/05/30 05:55:40;;;;;;;4.25;2.45;;;;;;;;;;5012639;28;20046;-59
2021/05/30 05:58:06;;;;;;;3.35;2.20;;;;;;;;;;5009663;28;20129;-59
2021/05/30 06:00:33;;;;;;;3.50;2.53;;;;;;;;;;5009326;28;20080;-59
2021/05/30 06:02:59;;;;;;;5.85;3.10;;;;;;;;;;5009421;28;20173;-59
2021/05/30 06:05:26;;;;;;;3.95;2.95;;;;;;;;;;5008914;28;20046;-59
2021/05/30 06:07:54;;;;;;;4.28;2.38;;;;;;;;;;5010543;28;20049;-59
2021/05/30 06:10:23;;;;;;;3.55;2.78;;;;;;;;;;5010172;28;20053;-59
2021/05/30 06:12:51;;;;;;;4.18;2.80;;;;;;;;;;5009504;28;20046;-60
2021/05/30 06:15:19;;;;;;;4.53;2.65;;;;;;;;;;5009575;28;20103;-59
2021/05/30 06:17:51;;;;;;;3.67;2.60;;;;;;;;;;4997761;28;20081;-59
2021/05/30 06:20:18;;;;;;;4.65;2.67;;;;;;;;;;4996519;28;20038;-59
2021/05/30 06:22:44;;;;;;;3.42;2.65;;;;;;;;;;5011499;28;20056;-59
2021/05/30 06:25:10;;;;;;;9.90;3.25;;;;;;;;;;5009465;28;20045;-59
2021/05/30 06:27:37;;;;;;;3.70;2.08;;;;;;;;;;5008624;28;20480;-59
2021/05/30 06:30:04;;;;;;;4.32;2.92;;;;;;;;;;5008656;28;20466;-59
2021/05/30 06:32:30;;;;;;;7.75;2.45;;;;;;;;;;5007912;28;20496;-59
2021/05/30 06:34:57;;;;;;;4.07;2.40;;;;;;;;;;5009935;28;20430;-59
2021/05/30 06:37:23;;;;;;;3.65;2.45;;;;;;;;;;5010357;28;20133;-59
2021/05/30 06:39:49;;;;;;;3.75;2.35;;;;;;;;;;4995513;28;20046;-59
2021/05/30 06:42:15;;;;;;;9.77;2.67;;;;;;;;;;4995298;28;20460;-59
2021/05/30 06:44:42;;;;;;;6.07;2.60;;;;;;;;;;4995132;28;20038;-59
2021/05/30 06:47:08;;;;;;;4.75;2.45;;;;;;;;;;5000013;28;20045;-59
2021/05/30 06:49:34;;;;;;;3.72;2.58;;;;;;;;;;4999596;28;20050;-59
2021/05/30 06:52:01;;;;;;;5.13;2.95;;;;;;;;;;4995795;28;20038;-59
2021/05/30 06:54:27;;;;;;;3.03;2.00;;;;;;;;;;4995245;28;20050;-59
2021/05/30 06:56:53;;;;;;;6.03;2.90;;;;;;;;;;4999608;28;20144;-59
2021/05/30 06:59:20;;;;;;;3.78;2.42;;;;;;;;;;5003777;28;20559;-59
2021/05/30 07:01:47;;;;;;;5.75;2.90;;;;;;;;;;4994084;28;20413;-59
2021/05/30 07:04:13;;;;;;;5.82;2.53;;;;;;;;;;4982060;28;20057;-57
2021/05/30 07:06:39;;;;;;;4.40;2.97;;;;;;;;;;5004952;28;20415;-57
2021/05/30 07:09:06;;;;;;;3.78;2.72;;;;;;;;;;5007343;28;20116;-59
2021/05/30 07:11:36;;;;;;;3.65;2.38;;;;;;;;;;4990972;28;20046;-59
2021/05/30 07:14:02;;;;;;;4.00;2.80;;;;;;;;;;5000459;28;20571;-59
2021/05/30 07:16:29;;;;;;;5.30;2.78;;;;;;;;;;4993388;28;20058;-59
2021/05/30 07:18:55;;;;;;;5.13;2.97;;;;;;;;;;4994668;28;20120;-58
2021/05/30 07:21:22;;;;;;;4.32;2.80;;;;;;;;;;4997903;28;20061;-58
2021/05/30 07:23:48;;;;;;;3.42;2.22;;;;;;;;;;5003107;28;20080;-58
2021/05/30 07:26:15;;;;;;;4.53;2.65;;;;;;;;;;4994429;28;20085;-58
2021/05/30 07:28:44;;;;;;;3.92;2.80;;;;;;;;;;5001581;28;20124;-57
2021/05/30 07:31:10;;;;;;;3.88;2.80;;;;;;;;;;5009611;28;20085;-58
2021/05/30 07:33:37;;;;;;;5.53;2.58;;;;;;;;;;5009414;28;20061;-59
2021/05/30 07:36:05;;;;;;;4.07;2.70;;;;;;;;;;5003286;28;20045;-58
2021/05/30 07:38:31;;;;;;;3.70;2.67;;;;;;;;;;4999870;28;20054;-59
2021/05/30 07:40:58;;;;;;;5.43;2.80;;;;;;;;;;5009930;28;20420;-59
2021/05/30 07:43:24;;;;;;;4.45;2.80;;;;;;;;;;5008296;28;20495;-59
2021/05/30 07:45:50;;;;;;;3.67;2.58;;;;;;;;;;5008324;28;20041;-58
2021/05/30 07:48:17;;;;;;;4.55;2.78;;;;;;;;;;5010072;28;20415;-59
2021/05/30 07:50:45;;;;;;;4.13;2.47;;;;;;;;;;5008099;28;20128;-60
2021/05/30 07:53:12;;;;;;;4.90;3.45;;;;;;;;;;5002737;28;20491;-59
2021/05/30 07:55:38;;;;;;;6.03;2.78;;;;;;;;;;5005861;28;20054;-58
2021/05/30 07:58:04;;;;;;;6.15;2.58;;;;;;;;;;5011002;28;20093;-60
2021/05/30 08:00:31;;;;;;;4.97;3.10;;;;;;;;;;5014242;28;20492;-60
2021/05/30 08:02:57;;;;;;;4.10;2.50;;;;;;;;;;5016581;28;20085;-60
2021/05/30 08:05:24;;;;;;;7.60;3.10;;;;;;;;;;5011109;28;20054;-60
2021/05/30 08:07:51;;;;;;;4.50;2.50;;;;;;;;;;5013317;28;20073;-60
2021/05/30 08:10:18;;;;;;;4.32;2.75;;;;;;;;;;5012701;28;20050;-60
2021/05/30 08:12:44;;;;;;;3.90;2.85;;;;;;;;;;5012419;28;20065;-60
2021/05/30 08:15:11;;;;;;;4.13;2.60;;;;;;;;;;5012152;28;20037;-60
2021/05/30 08:17:38;;;;;;;3.55;2.60;;;;;;;;;;5012784;28;20065;-60
2021/05/30 08:20:06;;;;;;;4.07;2.67;;;;;;;;;;5012667;28;20053;-60
2021/05/30 08:22:32;;;;;;;4.63;2.28;;;;;;;;;;5013362;28;20046;-60
2021/05/30 08:24:59;;;;;;;2.80;1.65;;;;;;;;;;5012739;28;20041;-59
2021/05/30 08:27:26;;;;;;;5.38;2.60;;;;;;;;;;5013391;28;20100;-60
2021/05/30 08:29:52;;;;;;;4.00;2.35;;;;;;;;;;5013213;28;20496;-60
2021/05/30 08:32:21;;;;;;;3.17;2.10;;;;;;;;;;5012013;28;20049;-59
2021/05/30 08:34:47;;;;;;;3.58;2.15;;;;;;;;;;5009833;28;20125;-59
2021/05/30 08:37:14;;;;;;;3.45;2.33;;;;;;;;;;5012295;28;20531;-58
2021/05/30 08:39:41;;;;;;;3.35;2.38;;;;;;;;;;5012507;28;20424;-58
2021/05/30 08:42:07;;;;;;;5.57;2.92;;;;;;;;;;5013433;28;20045;-58
2021/05/30 08:44:33;;;;;;;4.07;2.70;;;;;;;;;;5013206;28;20415;-59
2021/05/30 08:47:00;;;;;;;5.43;2.80;;;;;;;;;;5013394;28;20060;-59
2021/05/30 08:49:26;;;;;;;3.70;2.33;;;;;;;;;;5013829;28;20125;-59
2021/05/30 08:51:52;;;;;;;5.13;2.17;;;;;;;;;;5011988;28;20132;-58
2021/05/30 08:54:19;;;;;;;4.95;2.42;;;;;;;;;;5012916;28;20092;-58
2021/05/30 08:56:47;;;;;;;3.72;2.20;;;;;;;;;;5012468;28;20104;-59
2021/05/30 08:59:30;;;;;;;4.82;2.10;;;;;;;;;;5012893;28;20064;-59
2021/05/30 09:01:58;;;;;;;7.65;2.50;;;;;;;;;;5011415;28;20054;-58
2021/05/30 09:04:35;;;;;;;3.45;2.45;;;;;;;;;;5013840;28;20463;-58
2021/05/30 09:07:01;;;;;;;3.55;2.38;;;;;;;;;;5012711;28;20112;-59
2021/05/30 09:09:44;;;;;;;3.22;2.35;;;;;;;;;;5012876;28;20070;-59
2021/05/30 09:12:21;;;;;;;3.40;2.60;;;;;;;;;;5012596;28;20044;-59
2021/05/30 09:14:51;;;;;;;4.07;2.53;;;;;;;;;;5012273;28;20450;-59
2021/05/30 09:17:17;;;;;;;2.60;1.95;;;;;;;;;;5012473;28;20038;-59
2021/05/30 09:19:51;;;;;;;3.15;2.20;;;;;;;;;;5012723;28;20049;-59
2021/05/30 09:22:17;;;;;;;2.83;2.07;;;;;;;;;;5012385;28;20119;-58
2021/05/30 09:24:53;;;;;;;3.30;2.13;;;;;;;;;;5012765;28;20100;-59
2021/05/30 09:27:20;;;;;;;5.53;2.17;;;;;;;;;;5001589;28;20049;-58
2021/05/30 09:29:46;;;;;;;4.95;2.40;;;;;;;;;;5011053;28;20054;-59
2021/05/30 09:32:12;;;;;;;3.05;2.17;;;;;;;;;;5004604;28;20052;-58
2021/05/30 09:34:41;;;;;;;3.40;2.38;;;;;;;;;;5000210;28;20043;-58
2021/05/30 09:37:08;;;;;;;6.00;2.05;;;;;;;;;;5008578;28;20044;-59
2021/05/30 09:39:36;;;;;;;3.70;2.22;;;;;;;;;;5000909;28;20045;-59
2021/05/30 09:42:21;;;;;;;4.22;1.85;;;;;;;;;;5008397;28;20124;-59
2021/05/30 09:44:57;;;;;;;2.75;1.75;;;;;;;;;;5001073;28;20038;-57
2021/05/30 09:47:41;;;;;;;2.90;1.90;;;;;;;;;;5006847;28;20471;-59
2021/05/30 09:50:09;;;;;;;3.85;2.30;;;;;;;;;;5001505;28;20048;-59
2021/05/30 09:52:47;;;;;;;4.15;2.13;;;;;;;;;;4995908;28;20102;-60
2021/05/30 09:55:23;;;;;;;3.88;2.60;;;;;;;;;;4996185;28;20524;-60
2021/05/30 09:58:10;;;;;;;3.13;2.17;;;;;;;;;;5000411;28;20089;-59
2021/05/30 10:00:37;;;;;;;3.15;2.13;;;;;;;;;;5005849;28;20127;-59
2021/05/30 10:03:03;;;;;;;3.28;1.90;;;;;;;;;;5011981;28;20050;-60
2021/05/30 10:05:30;;;;;;;4.10;2.50;;;;;;;;;;5010015;28;20156;-59
2021/05/30 10:07:56;;;;;;;2.83;1.63;;;;;;;;;;4996976;28;20602;-60
2021/05/30 10:10:23;;;;;;;3.63;2.35;;;;;;;;;;4997637;28;20074;-59
2021/05/30 10:12:50;;;;;;;2.70;1.80;;;;;;;;;;5007862;28;20575;-60
2021/05/30 10:15:16;;;;;;;2.58;1.83;;;;;;;;;;5007127;28;20136;-60
2021/05/30 10:17:44;;;;;;;2.30;1.75;;;;;;;;;;5007963;28;20149;-60
2021/05/30 10:20:12;;;;;;;3.95;1.90;;;;;;;;;;5008803;28;20039;-60
2021/05/30 10:22:39;;;;;;;2.72;2.20;;;;;;;;;;5007519;28;20081;-60
2021/05/30 10:25:06;;;;;;;3.67;2.47;;;;;;;;;;5007207;28;20068;-60
2021/05/30 10:27:32;;;;;;;2.83;1.88;;;;;;;;;;5009973;28;20061;-60
2021/05/30 10:30:11;;;;;;;2.72;2.28;;;;;;;;;;5007468;28;20145;-60
2021/05/30 10:32:38;;;;;;;3.85;2.00;;;;;;;;;;5010108;28;20053;-60
2021/05/30 10:35:08;;;;;;;5.28;2.28;;;;;;;;;;5010385;28;20053;-59
2021/05/30 10:37:39;;;;;;;6.35;2.38;;;;;;;;;;5012335;28;20042;-60
2021/05/30 10:40:25;;;;;;;6.53;2.70;;;;;;;;;;5010117;28;20061;-60
2021/05/30 10:43:10;;;;;;;3.30;2.10;;;;;;;;;;5009900;28;20041;-60
2021/05/30 10:45:43;;;;;;;3.33;2.35;;;;;;;;;;5010172;28;20492;-60
2021/05/30 10:48:09;;;;;;;3.60;2.20;;;;;;;;;;5009810;28;20045;-57
2021/05/30 10:50:41;;;;;;;5.25;2.30;;;;;;;;;;5010586;28;20124;-60
2021/05/30 10:53:26;;;;;;;3.72;2.70;;;;;;;;;;5011601;28;20412;-60
2021/05/30 10:55:52;;;;;;;;;;;;;;;;;;5010048;28;20050;-60
2021/05/30 10:58:21;;;;;;;3.28;2.08;;;;;;;;;;5012383;28;19949;-60
2021/05/30 11:00:49;;;;;;;2.97;1.95;;;;;;;;;;5012135;28;20124;-60
2021/05/30 11:03:16;;;;;;;2.22;1.73;;;;;;;;;;5014638;28;20049;-60
2021/05/30 11:05:47;;;;;;;4.70;2.22;;;;;;;;;;5014877;28;20042;-59
2021/05/30 11:08:34;;;;;;;4.20;1.75;;;;;;;;;;5000607;28;20045;-59
2021/05/30 11:11:19;;;;;;;2.85;1.70;;;;;;;;;;5013613;28;20408;-60
2021/05/30 11:13:52;;;;;;;3.92;2.40;;;;;;;;;;5012883;28;20403;-59
2021/05/30 11:16:19;;;;;;;3.45;2.15;;;;;;;;;;5016052;28;20069;-60
2021/05/30 11:18:55;;;;;;;7.78;1.92;;;;;;;;;;5015579;28;20046;-59
2021/05/30 11:21:25;;;;;;;4.68;1.83;;;;;;;;;;5015875;28;20062;-59
2021/05/30 11:23:52;;;;;;;2.90;1.92;;;;;;;;;;5015483;28;20053;-59
2021/05/30 11:26:18;;;;;;;3.10;2.05;;;;;;;;;;5014289;28;20037;-59
2021/05/30 11:28:46;;;;;;;2.88;1.90;;;;;;;;;;5015491;28;20491;-58
2021/05/30 11:31:12;;;;;;;3.58;1.67;;;;;;;;;;5015887;28;20473;-59
2021/05/30 11:33:41;;;;;;;2.65;1.52;;;;;;;;;;5015428;28;20073;-60
2021/05/30 11:36:13;;;;;;;2.33;1.45;;;;;;;;;;5015439;28;20053;-59
2021/05/30 11:38:47;;;;;;;2.30;1.20;;;;;;;;;;5015217;28;20096;-59
2021/05/30 11:41:14;;;;;;;;;;;;;;;;;;5000602;28;20085;-60
2021/05/30 11:43:52;;;;;;;2.30;1.25;;;;;;;;;;5015185;28;19921;-60
2021/05/30 11:46:18;;;;;;;2.50;1.52;;;;;;;;;;5014554;28;20061;-60
2021/05/30 11:48:45;;;;;;;1.92;1.27;;;;;;;;;;5012682;28;20049;-58
2021/05/30 11:51:11;;;;;;;2.20;1.05;;;;;;;;;;5014919;28;20412;-58
2021/05/30 11:53:37;;;;;;;3.42;1.20;;;;;;;;;;5014798;28;20099;-60
2021/05/30 11:56:05;;;;;;;1.70;1.30;;;;;;;;;;5014663;28;20103;-60
2021/05/30 11:58:32;;;;;;;1.75;1.38;;;;;;;;;;5015602;28;20050;-61
2021/05/30 12:01:02;;;;;;;5.80;1.63;;;;;;;;;;5014634;28;20085;-59
2021/05/30 12:03:28;;;;;;;4.07;1.70;;;;;;;;;;5014830;28;20106;-60
2021/05/30 12:06:02;;;;;;;2.97;1.67;;;;;;;;;;5014684;28;20409;-59
2021/05/30 12:08:28;;;;;;;2.45;1.50;;;;;;;;;;5014508;28;20080;-61
2021/05/30 12:10:58;;;;;;;2.92;1.52;;;;;;;;;;5014907;28;20049;-60
2021/05/30 12:13:26;;;;;;;2.13;1.35;;;;;;;;;;5012819;28;20049;-60
2021/05/30 12:15:52;;;;;;;2.72;1.80;;;;;;;;;;5014614;28;20045;-60
2021/05/30 12:18:18;;;;;;;3.97;1.50;;;;;;;;;;5014466;28;20499;-60
2021/05/30 12:20:45;;;;;;;2.42;1.60;;;;;;;;;;5014408;28;20045;-60
2021/05/30 12:23:13;;;;;;;2.70;1.70;;;;;;;;;;4999075;28;20069;-60
2021/05/30 12:25:59;;;;;;;2.30;1.42;;;;;;;;;;5010969;28;20404;-59
2021/05/30 12:28:31;;;;;;;1.58;1.13;;;;;;;;;;5023808;28;20112;-59
2021/05/30 12:30:57;;;;;;;2.20;1.30;;;;;;;;;;5013050;28;20108;-60
2021/05/30 12:33:24;;;;;;;2.38;1.30;;;;;;;;;;5014255;28;20081;-60
2021/05/30 12:35:52;;;;;;;2.83;1.60;;;;;;;;;;5014176;28;20042;-60
2021/05/30 12:38:29;;;;;;;2.45;1.50;;;;;;;;;;5013860;28;20058;-60
2021/05/30 12:40:56;;;;;;;2.60;1.50;;;;;;;;;;5014256;28;20076;-60
2021/05/30 12:43:51;;;;;;;5.03;1.60;;;;;;;;;;5012716;28;20080;-59
2021/05/30 12:46:18;;;;;;;3.28;1.60;;;;;;;;;;5005492;28;20058;-60
2021/05/30 12:48:44;;;;;;;3.88;1.85;;;;;;;;;;5013407;28;20049;-59
2021/05/30 12:51:31;;;;;;;4.72;2.20;;;;;;;;;;5007898;28;20050;-60
2021/05/30 12:53:58;;;;;;;2.08;1.38;;;;;;;;;;5012446;28;20042;-60
2021/05/30 12:56:26;;;;;;;3.00;1.80;;;;;;;;;;5011216;28;20057;-60
2021/05/30 12:59:11;;;;;;;4.63;1.73;;;;;;;;;;5011508;28;20685;-59
2021/05/30 13:01:39;;;;;;;2.45;1.48;;;;;;;;;;5013237;28;20100;-59
2021/05/30 13:04:18;;;;;;;5.40;1.90;;;;;;;;;;5009146;28;20081;-60
2021/05/30 13:06:55;;;;;;;4.28;1.98;;;;;;;;;;5008181;28;20073;-58
2021/05/30 13:09:21;;;;;;;4.78;1.83;;;;;;;;;;5007829;28;20050;-58
2021/05/30 13:11:48;;;;;;;2.97;1.60;;;;;;;;;;5011398;28;20116;-60
2021/05/30 13:14:44;;;;;;;3.13;2.08;;;;;;;;;;5005121;28;20053;-60
2021/05/30 13:17:17;;;;;;;3.75;1.98;;;;;;;;;;4996699;28;20062;-58
2021/05/30 13:20:02;;;;;;;3.17;1.88;;;;;;;;;;5009041;28;20057;-60
2021/05/30 13:22:28;;;;;;;2.90;1.83;;;;;;;;;;5012671;28;20053;-58
2021/05/30 13:24:55;;;;;;;3.55;1.77;;;;;;;;;;5009253;28;20501;-59
2021/05/30 13:27:25;;;;;;;1.90;1.50;;;;;;;;;;5010376;28;20050;-60
2021/05/30 13:30:02;;;;;;;3.33;1.40;;;;;;;;;;5008048;28;20080;-60
2021/05/30 13:32:28;;;;;;;1.80;1.10;;;;;;;;;;5010022;28;20038;-60
2021/05/30 13:34:55;;;;;;;2.75;1.40;;;;;;;;;;5010537;28;20140;-60
2021/05/30 13:37:21;;;;;;;2.60;1.48;;;;;;;;;;5011233;28;20049;-59
2021/05/30 13:39:48;;;;;;;2.10;1.33;;;;;;;;;;5012765;28;20052;-60
2021/05/30 13:42:14;;;;;;;6.18;1.40;;;;;;;;;;5012448;28;20049;-59
2021/05/30 13:44:41;;;;;;;3.13;2.28;;;;;;;;;;5013128;28;20053;-61
2021/05/30 13:47:07;;;;;;;3.00;1.55;;;;;;;;;;5012439;28;20045;-61
2021/05/30 13:49:34;;;;;;;2.60;1.42;;;;;;;;;;5012652;28;20085;-59
2021/05/30 13:52:00;;;;;;;2.70;1.35;;;;;;;;;;5012257;28;20057;-59
2021/05/30 13:54:26;;;;;;;3.20;1.25;;;;;;;;;;5012421;28;20053;-60
2021/05/30 13:56:52;;;;;;;2.55;1.23;;;;;;;;;;5012459;28;20139;-60
2021/05/30 13:59:19;;;;;;;2.35;1.20;;;;;;;;;;5010015;28;20038;-60
2021/05/30 14:01:45;;;;;;;3.95;2.05;;;;;;;;;;5011716;28;20049;-59
2021/05/30 14:04:12;;;;;;;1.58;1.10;;;;;;;;;;5004924;28;20508;-59
2021/05/30 14:06:38;;;;;;;2.45;1.35;;;;;;;;;;5001647;28;20092;-60
2021/05/30 14:09:06;;;;;;;2.58;1.40;;;;;;;;;;4996137;28;20536;-60
2021/05/30 14:11:32;;;;;;;5.28;1.40;;;;;;;;;;5007717;28;20046;-59
2021/05/30 14:13:58;;;;;;;3.55;1.40;;;;;;;;;;5010230;28;20052;-60
2021/05/30 14:16:24;;;;;;;2.10;1.38;;;;;;;;;;5009145;28;20492;-60
2021/05/30 14:18:51;;;;;;;2.13;1.40;;;;;;;;;;5000855;28;20088;-59
2021/05/30 14:21:17;;;;;;;2.55;1.60;;;;;;;;;;5000174;28;20440;-60
2021/05/30 14:23:44;;;;;;;1.77;1.23;;;;;;;;;;4995217;28;20053;-60
2021/05/30 14:26:11;;;;;;;6.07;1.63;;;;;;;;;;5005726;28;20050;-59
2021/05/30 14:28:37;;;;;;;3.13;1.50;;;;;;;;;;5010400;28;20156;-59
2021/05/30 14:31:03;;;;;;;2.35;1.42;;;;;;;;;;5007492;28;20535;-59
2021/05/30 14:33:29;;;;;;;2.70;1.30;;;;;;;;;;5004341;28;20073;-60
2021/05/30 14:35:56;;;;;;;2.25;1.42;;;;;;;;;;4995789;28;20046;-59
2021/05/30 14:38:22;;;;;;;2.60;1.50;;;;;;;;;;4997178;28;20047;-59
2021/05/30 14:40:48;;;;;;;2.85;1.60;;;;;;;;;;4991610;28;20089;-58
2021/05/30 14:43:15;;;;;;;3.60;1.70;;;;;;;;;;4997385;28;20386;-59
2021/05/30 14:45:41;;;;;;;1.83;1.10;;;;;;;;;;5000975;28;20046;-59
2021/05/30 14:48:08;;;;;;;2.30;1.50;;;;;;;;;;5009625;28;20073;-59
2021/05/30 14:50:34;;;;;;;2.00;1.27;;;;;;;;;;5007179;28;20562;-59